Extreme weather reports worldwide

Highest temperatures

Station
 
Location
 
Name
 
Wind
Knots
Gust
Knots
Vis
SM
Temp/Dew
C
Baro
inHg
METAR
 
HMO MMHO Hermosillo, MX General Ignacio P. Garcia International Airport 9 10 41/-5 29.86 MMHO 272140Z 28009KT 10SM SKC 41/M05 A2986 RMK HZY
KCHD Chandler, US Chandler Municipal Airport 13 10 41/2 29.82 KCHD 272147Z 23013KT 10SM CLR 41/02 A2982
KGXF 11 10 41/-6 29.76 KGXF 272228Z AUTO 24011KT 10SM CLR 41/M06 A2976 RMK AO2 WSHFT 18 SLP064
IFP KIFP Bullhead City, US Laughlin Bullhead International Airport 20 10 40/-1 29.73 KIFP 272148Z 15020KT 10SM SCT160 40/M01 A2973
BLH KBLH Blythe, US Blythe Airport 15 22 10 40/-1 29.77 KBLH 272152Z AUTO 17015G22KT 10SM FEW110 40/M02 A2977 RMK AO2 SLP073 T04001017 TSNO

Station
 
Location
 
Name
 
Wind
Knots
Gust
Knots
Vis
SM
Temp/Dew
C
Baro
inHg
METAR
 
EED KEED Needles, US Needles Airport 14 26 10 40/-2 29.77 KEED 272156Z AUTO 18014G26KT 10SM CLR 40/M02 A2977 RMK AO2 PK WND 19026/2149 SLP044 T04001022
NJK KNJK El Centro, US El Centro NAF Airport (Vraciu Field) 7 10 40/2 29.76 KNJK 272156Z 11007KT 10SM SCT250 40/02 A2976 RMK AO2 SLP094 T04000022 $
GYR KGYR Goodyear, US Phoenix Goodyear Airport 9 17 10 39/0 29.82 KGYR 272147Z 24009G17KT 10SM SCT250 39/00 A2982
AZA KIWA Phoenix, US Phoenix-Mesa-Gateway Airport 9 16 10 39/3 29.84 KIWA 272150Z 28009G16KT 10SM PO CLR 39/03 A2984
PHX KPHX Phoenix, US Phoenix Sky Harbor International Airport 6 10 39/0 29.80 KPHX 272151Z 25006KT 10SM SCT250 39/01 A2980 RMK AO2 SLP069 T03940006
KRYN Tucson, US Ryan Field 10 18 10 39/-1 29.87 KRYN 272155Z 23010G18KT 10SM CLR 39/M01 A2987
CGZ KCGZ Casa Grande, US Casa Grande Municipal Airport 4 10 39/1 29.83 KCGZ 272156Z AUTO 15004KT 10SM CLR 39/01 A2983 RMK AO2 SLP084 T03940011 $
LGF KLGF Yuma Proving Ground(Yuma), US Laguna Army Airfield 13 17 10 39/-7 29.78 KLGF 272158Z AUTO 19013G17KT 10SM CLR 39/M07 A2978 RMK AO2 SLP080 T03931073 TSNO $
LSV KLSV Las Vegas, US Nellis Air Force Base 15 20 10 39/-6 29.76 KLSV 272158Z AUTO 21015G20KT 10SM CLR 40/M07 A2976 RMK AO2 PK WND 23026/03 SLP049 T03991069 $
KA39 6 10 39/1 29.85 KA39 272215Z AUTO 32006KT 10SM CLR 39/01 A2985 RMK AO2
HII KHII Lake Havasu City, US Lake Havasu City Airport 15 21 10 39/0 29.77 KHII 272215Z AUTO 20015G21KT 10SM CLR 39/00 A2977 RMK AO2
PEQ KPEQ Pecos, US Pecos Municipal Airport 0 10 39/-4 29.88 KPEQ 272215Z AUTO 00000KT 10SM CLR 39/M05 A2988 RMK AO2 T03911049
AVW KAVQ Tucson, US Marana Regional Airport 5 10 39/0 29.83 KAVQ 272235Z AUTO 31005KT 10SM CLR 39/00 A2983 RMK AO2 T03930002
KBVU 19 24 10 39/-8 29.78 KBVU 272235Z AUTO 20019G24KT 10SM CLR 39/M08 A2978 RMK AO2
BXK KBXK Buckeye, US Buckeye Municipal Airport 10 10 39/-4 29.80 KBXK 272235Z AUTO 26010KT 10SM CLR 39/M04 A2980 RMK A01
KL08 13 19 10 39/-5 29.75 KL08 272235Z AUTO 23013G19KT 190V250 10SM CLR 39/M05 A2975 RMK AO2
KPRS US Presidio Lely International Airport 5 10 39/7 29.90 KPRS 272235Z AUTO 34005KT 10SM CLR 39/08 A2990 RMK AO2 T03900079
KT89 9 10 39/-1 29.87 KT89 272235Z AUTO 16009KT 10SM CLR 39/M01 A2987 RMK A01
TRC MMTC Torreón, MX Francisco Sarabia International Airport 9 10 38/0 29.99 MMTC 272144Z 08009KT 10SM SCT035CB SCT250 38/00 A2999 RMK 8/903 SC
CJS MMCS Ciudad Juárez, MX Abraham González International Airport 7 10 38/-7 29.98 MMCS 272148Z 25007KT 10SM FEW030 38/M07 A2998 RMK 8/100
ELP KELP El Paso, US El Paso International Airport 11 24 10 38/-6 29.96 KELP 272151Z 22011G24KT 10SM FEW160 FEW250 39/M06 A2996 RMK AO2 SLP060 T03891061 $
ROW KROW Roswell, US Roswell Air Center Airport 19 28 10 38/-3 29.91 KROW 272151Z 16019G28KT 10SM CLR 39/M04 A2991 RMK AO2 PK WND 15028/2149 SLP053 T03891039
INK KINK Wink, US Winkler County Airport 12 25 10 38/-1 29.91 KINK 272153Z AUTO 15012G25KT 10SM CLR 38/M02 A2991 RMK AO2 SLP076 T03831017
IPL KIPL Imperial, US Imperial County Airport 7 10 38/2 29.75 KIPL 272153Z AUTO 08007KT 10SM CLR 38/02 A2975 RMK AO2 SLP076 T03830022
TUS KTUS Tucson, US Tucson International Airport / Morris Air National Guard Base 3 10 38/0 29.91 KTUS 272153Z VRB03KT 10SM CLR 38/M01 A2991 RMK AO2 SLP072 T03831006
VGT KVGT Las Vegas, US North Las Vegas Airport 17 25 10 38/-5 29.79 KVGT 272153Z 20017G25KT 10SM CLR 38/M05 A2979 RMK AO2 PK WND 17029/2059 SLP073 T03831050
CVM MMCV Ciudad Victoria, MX General Pedro Jose Mendez International Airport 4 7 38/13 29.86 MMCV 272153Z E18004KT 7SM SCT010 38/13 A2986 RMK 8/100 DSNT CB E HZY
MSC KFFZ Mesa, US Falcon Field 11 18 10 38/1 29.82 KFFZ 272154Z 19011G18KT 10SM CLR 38/02 A2982 RMK AO2 SLP072 T03830017
CEN MMCN Ciudad Obregón, MX Ciudad Obregón International Airport 10 10 38/-5 29.76 MMCN 272155Z 26010KT 10SM SKC 38/M05 A2976
KGEU Glendale, US Glendale Municipal Airport 5 10 38/-2 29.81 KGEU 272157Z VRB05KT 10SM SCT250 38/M02 A2981
YUM KNYL Yuma, US Yuma MCAS/Yuma International Airport 10 10 38/-3 29.78 KNYL 272157Z AUTO 18010KT 10SM CLR 39/M03 A2978 RMK AO2 SLP080 T03891033
LUF KLUF Glendale, US Luke Air Force Base 8 17 10 38/-3 29.81 KLUF 272158Z AUTO 22008G17KT 10SM CLR 39/M03 A2981 RMK AO2 SLP079 T03861034 $
KNOZ 12 21 10 38/-6 29.80 KNOZ 272159Z AUTO 17012G21KT 10SM CLR 38/M06 A2980 RMK AO2 SLP038 T03831061
KRYW Lago Vista, US Lago Vista Texas Rusty Allen Airport 0 10 38/11 29.97 KRYW 272215Z AUTO 00000KT 10SM CLR 38/12 A2997 RMK AO2 T03800119
BIF KBIF Fort Bliss/El Paso, US Biggs Army Air Field (Fort Bliss) 10 17 10 38/-6 29.97 KBIF 272225Z 22010G17KT 10SM CLR 38/M06 A2997 RMK SLP074 $
ATS KATS Artesia, US Artesia Municipal Airport 12 18 10 38/-4 29.91 KATS 272235Z AUTO 20012G18KT 10SM CLR 38/M04 A2991 RMK AO2
KDNA 12 23 10 38/-9 29.97 KDNA 272235Z AUTO 24012G23KT 10SM CLR 38/M09 A2997 RMK AO2
MZJ KMZJ Marana, US Pinal Airpark 0 12 3 38/2 29.85 KMZJ 272235Z AUTO 00000G12KT 3SM HZ CLR 38/02 A2985 RMK AO2
KP08 9 10 38/2 29.82 KP08 272235Z AUTO 30009KT 10SM CLR 38/02 A2982 RMK AO2
MXL MMML Mexicali, MX General Rodolfo Sánchez Taboada International Airport 3 10 37/1 29.78 MMML 272143Z 12003KT 10SM SKC 37/01 A2978
PDS MMPG MX Piedras Negras International Airport 8 8 37/25 29.94 MMPG 272144Z 13008KT 8SM FEW020 37/25 A2994 RMK 8/500 HZY
DAG KDAG Daggett, US Barstow Daggett Airport 18 26 10 37/-7 29.83 KDAG 272150Z AUTO 26018G26KT 10SM CLR 38/M07 A2983 RMK AO2 PK WND 27026/2150 SLP071 T03781072
HOB KHOB Hobbs, US Lea County Regional Airport 17 24 10 37/-3 29.98 KHOB 272150Z 16017G24KT 10SM SKC 37/M03 A2998
SAD KSAD Safford, US Safford Regional Airport 8 10 37/0 29.90 KSAD 272151Z AUTO 25008KT 10SM CLR 38/00 A2990 RMK AO2 SLP059 T03780000
CNM KCNM Carlsbad, US Cavern City Air Terminal 13 22 10 37/-5 29.90 KCNM 272153Z AUTO 14013G22KT 10SM CLR 38/M05 A2990 RMK AO2 SLP065 T03781050